Airport ID:K63S
Update Time (UTC):28/10/2020 06:12
Wind Speed (Knots):0
Wind Direction (Magnetic):50
Temperature (°C):-3
Dew Point (°C):-4
Humidity (%):90
Altimeter (inHg):30.23
Density Altitude (Feet):
Visibility:10+
Clouds (Hundreds of feet):FEW029 BKN036 BKN042
Present Weather:
METAR:METAR K63S 280610Z AUTO 00000KT 10SM FEW029 BKN036 BKN042 M03/M04 A3023 RMK A01

The data displayed is for advisory purposes only and is not to be used for flight planning or operations.